sensor_id;sensor_type;location;lat;lon;timestamp;pressure;altitude;pressure_sealevel;temperature;humidity
18813;BME280;9534;51.140;6.296;2022-07-29T00:03:59;100462.44;;;18.79;100.00
18813;BME280;9534;51.140;6.296;2022-07-29T00:08:03;100458.28;;;18.76;100.00
18813;BME280;9534;51.140;6.296;2022-07-29T00:12:14;100466.03;;;18.74;100.00
18813;BME280;9534;51.140;6.296;2022-07-29T00:16:25;100452.34;;;18.63;100.00
18813;BME280;9534;51.140;6.296;2022-07-29T00:20:29;100453.72;;;18.61;100.00
18813;BME280;9534;51.140;6.296;2022-07-29T00:24:32;100445.06;;;18.52;100.00
18813;BME280;9534;51.140;6.296;2022-07-29T00:28:36;100439.19;;;18.44;100.00
18813;BME280;9534;51.140;6.296;2022-07-29T00:32:39;100435.56;;;18.43;100.00
18813;BME280;9534;51.140;6.296;2022-07-29T00:36:43;100427.56;;;18.47;100.00
18813;BME280;9534;51.140;6.296;2022-07-29T00:40:46;100421.22;;;18.51;100.00
18813;BME280;9534;51.140;6.296;2022-07-29T00:44:51;100417.56;;;18.41;100.00
18813;BME280;9534;51.140;6.296;2022-07-29T00:48:54;100425.22;;;18.34;100.00
18813;BME280;9534;51.140;6.296;2022-07-29T00:52:58;100422.97;;;18.31;100.00
18813;BME280;9534;51.140;6.296;2022-07-29T00:57:01;100413.81;;;18.25;100.00
18813;BME280;9534;51.140;6.296;2022-07-29T01:01:08;100416.84;;;18.24;100.00
18813;BME280;9534;51.140;6.296;2022-07-29T01:05:11;100416.78;;;18.19;100.00
18813;BME280;9534;51.140;6.296;2022-07-29T01:09:15;100411.25;;;18.19;100.00
18813;BME280;9534;51.140;6.296;2022-07-29T01:13:41;100419.59;;;18.24;100.00
18813;BME280;9534;51.140;6.296;2022-07-29T01:17:51;100439.47;;;18.16;100.00
18813;BME280;9534;51.140;6.296;2022-07-29T01:21:57;100467.97;;;18.38;100.00
18813;BME280;9534;51.140;6.296;2022-07-29T01:26:24;100479.31;;;18.36;100.00
18813;BME280;9534;51.140;6.296;2022-07-29T01:30:35;100453.63;;;18.46;100.00
18813;BME280;9534;51.140;6.296;2022-07-29T01:34:49;100450.28;;;18.44;100.00
18813;BME280;9534;51.140;6.296;2022-07-29T01:39:05;100461.31;;;18.39;100.00
18813;BME280;9534;51.140;6.296;2022-07-29T01:43:10;100468.00;;;18.43;100.00
18813;BME280;9534;51.140;6.296;2022-07-29T01:47:19;100457.41;;;18.35;100.00
18813;BME280;9534;51.140;6.296;2022-07-29T01:51:25;100449.75;;;18.47;100.00
18813;BME280;9534;51.140;6.296;2022-07-29T01:55:34;100449.19;;;18.45;100.00
18813;BME280;9534;51.140;6.296;2022-07-29T01:59:38;100441.84;;;18.34;100.00
18813;BME280;9534;51.140;6.296;2022-07-29T02:03:45;100439.56;;;18.26;100.00
18813;BME280;9534;51.140;6.296;2022-07-29T02:07:50;100437.28;;;18.18;100.00
18813;BME280;9534;51.140;6.296;2022-07-29T02:11:56;100432.28;;;18.15;100.00
18813;BME280;9534;51.140;6.296;2022-07-29T02:16:02;100431.97;;;18.11;100.00
18813;BME280;9534;51.140;6.296;2022-07-29T02:20:10;100432.22;;;18.10;100.00
18813;BME280;9534;51.140;6.296;2022-07-29T02:24:16;100433.28;;;18.04;100.00
18813;BME280;9534;51.140;6.296;2022-07-29T02:28:22;100428.25;;;18.01;100.00
18813;BME280;9534;51.140;6.296;2022-07-29T02:32:27;100431.50;;;17.88;100.00
18813;BME280;9534;51.140;6.296;2022-07-29T02:36:33;100438.38;;;17.85;100.00
18813;BME280;9534;51.140;6.296;2022-07-29T02:40:38;100446.84;;;17.74;100.00
18813;BME280;9534;51.140;6.296;2022-07-29T02:44:42;100448.56;;;16.89;100.00
18813;BME280;9534;51.140;6.296;2022-07-29T02:48:49;100466.78;;;16.19;100.00
18813;BME280;9534;51.140;6.296;2022-07-29T02:52:57;100477.97;;;15.69;100.00
18813;BME280;9534;51.140;6.296;2022-07-29T02:57:06;100492.28;;;15.38;100.00
18813;BME280;9534;51.140;6.296;2022-07-29T03:01:15;100482.97;;;15.16;100.00
18813;BME280;9534;51.140;6.296;2022-07-29T03:05:24;100475.16;;;15.13;100.00
18813;BME280;9534;51.140;6.296;2022-07-29T03:09:29;100478.53;;;15.15;100.00
18813;BME280;9534;51.140;6.296;2022-07-29T03:13:35;100482.81;;;15.22;100.00
18813;BME280;9534;51.140;6.296;2022-07-29T03:17:39;100482.09;;;15.15;100.00
18813;BME280;9534;51.140;6.296;2022-07-29T03:21:42;100465.06;;;15.18;100.00
18813;BME280;9534;51.140;6.296;2022-07-29T03:25:47;100471.94;;;15.16;100.00
18813;BME280;9534;51.140;6.296;2022-07-29T03:29:50;100458.09;;;15.27;100.00
18813;BME280;9534;51.140;6.296;2022-07-29T03:33:54;100449.50;;;15.24;100.00
18813;BME280;9534;51.140;6.296;2022-07-29T03:37:57;100457.97;;;15.34;100.00
18813;BME280;9534;51.140;6.296;2022-07-29T03:42:05;100479.16;;;15.45;100.00
18813;BME280;9534;51.140;6.296;2022-07-29T03:46:10;100494.81;;;15.56;100.00
18813;BME280;9534;51.140;6.296;2022-07-29T03:50:14;100486.63;;;15.44;100.00
18813;BME280;9534;51.140;6.296;2022-07-29T03:54:18;100493.22;;;15.43;100.00
18813;BME280;9534;51.140;6.296;2022-07-29T03:58:26;100484.84;;;15.27;100.00
18813;BME280;9534;51.140;6.296;2022-07-29T04:02:30;100499.59;;;15.09;100.00
18813;BME280;9534;51.140;6.296;2022-07-29T04:06:38;100502.16;;;14.88;100.00
18813;BME280;9534;51.140;6.296;2022-07-29T04:10:42;100510.31;;;14.83;100.00
18813;BME280;9534;51.140;6.296;2022-07-29T04:14:47;100511.03;;;14.90;100.00
18813;BME280;9534;51.140;6.296;2022-07-29T04:18:50;100516.53;;;14.90;100.00
18813;BME280;9534;51.140;6.296;2022-07-29T04:22:53;100522.78;;;14.97;100.00
18813;BME280;9534;51.140;6.296;2022-07-29T04:26:57;100512.56;;;15.09;100.00
18813;BME280;9534;51.140;6.296;2022-07-29T04:31:01;100510.63;;;15.09;100.00
18813;BME280;9534;51.140;6.296;2022-07-29T04:35:05;100523.00;;;15.07;100.00
18813;BME280;9534;51.140;6.296;2022-07-29T04:39:08;100527.44;;;15.08;100.00
18813;BME280;9534;51.140;6.296;2022-07-29T04:43:12;100517.84;;;14.99;100.00
18813;BME280;9534;51.140;6.296;2022-07-29T04:47:17;100505.28;;;15.03;100.00
18813;BME280;9534;51.140;6.296;2022-07-29T04:51:20;100518.69;;;14.99;100.00
18813;BME280;9534;51.140;6.296;2022-07-29T04:55:23;100510.06;;;14.96;100.00
18813;BME280;9534;51.140;6.296;2022-07-29T04:59:27;100508.88;;;14.92;100.00
18813;BME280;9534;51.140;6.296;2022-07-29T05:03:31;100495.22;;;14.97;100.00
18813;BME280;9534;51.140;6.296;2022-07-29T05:07:35;100497.59;;;15.05;100.00
18813;BME280;9534;51.140;6.296;2022-07-29T05:11:38;100495.78;;;15.10;100.00
18813;BME280;9534;51.140;6.296;2022-07-29T05:15:41;100497.09;;;15.08;100.00
18813;BME280;9534;51.140;6.296;2022-07-29T05:19:46;100497.56;;;15.28;100.00
18813;BME280;9534;51.140;6.296;2022-07-29T05:23:49;100490.59;;;15.25;100.00
18813;BME280;9534;51.140;6.296;2022-07-29T05:27:53;100494.91;;;15.33;100.00
18813;BME280;9534;51.140;6.296;2022-07-29T05:31:56;100505.81;;;15.39;100.00
18813;BME280;9534;51.140;6.296;2022-07-29T05:36:00;100501.22;;;15.45;100.00
18813;BME280;9534;51.140;6.296;2022-07-29T05:40:05;100511.44;;;15.33;100.00
18813;BME280;9534;51.140;6.296;2022-07-29T05:44:08;100523.50;;;15.55;100.00
18813;BME280;9534;51.140;6.296;2022-07-29T05:48:11;100545.81;;;15.53;100.00
18813;BME280;9534;51.140;6.296;2022-07-29T05:52:16;100571.38;;;15.49;100.00
18813;BME280;9534;51.140;6.296;2022-07-29T05:56:19;100589.47;;;15.45;100.00
18813;BME280;9534;51.140;6.296;2022-07-29T06:00:23;100607.22;;;15.49;100.00
18813;BME280;9534;51.140;6.296;2022-07-29T06:04:26;100610.19;;;15.59;100.00
18813;BME280;9534;51.140;6.296;2022-07-29T06:08:30;100604.34;;;15.55;100.00
18813;BME280;9534;51.140;6.296;2022-07-29T06:12:35;100600.34;;;15.63;100.00
18813;BME280;9534;51.140;6.296;2022-07-29T06:16:38;100605.97;;;15.68;100.00
18813;BME280;9534;51.140;6.296;2022-07-29T06:20:42;100610.78;;;15.72;100.00
18813;BME280;9534;51.140;6.296;2022-07-29T06:24:46;100611.72;;;15.78;100.00
18813;BME280;9534;51.140;6.296;2022-07-29T06:28:49;100599.88;;;15.66;100.00
18813;BME280;9534;51.140;6.296;2022-07-29T06:32:52;100587.44;;;15.52;100.00
18813;BME280;9534;51.140;6.296;2022-07-29T06:36:56;100590.28;;;15.57;100.00
18813;BME280;9534;51.140;6.296;2022-07-29T06:41:01;100591.41;;;15.33;100.00
18813;BME280;9534;51.140;6.296;2022-07-29T06:45:10;100593.69;;;15.36;100.00
18813;BME280;9534;51.140;6.296;2022-07-29T06:49:13;100596.81;;;15.28;100.00
18813;BME280;9534;51.140;6.296;2022-07-29T06:53:16;100593.78;;;15.29;100.00
18813;BME280;9534;51.140;6.296;2022-07-29T06:57:21;100591.16;;;15.34;100.00
18813;BME280;9534;51.140;6.296;2022-07-29T07:01:24;100597.63;;;15.51;100.00
18813;BME280;9534;51.140;6.296;2022-07-29T07:05:27;100604.78;;;15.64;100.00
18813;BME280;9534;51.140;6.296;2022-07-29T07:09:30;100594.06;;;15.79;100.00
18813;BME280;9534;51.140;6.296;2022-07-29T07:13:43;100589.66;;;16.06;100.00
18813;BME280;9534;51.140;6.296;2022-07-29T07:17:46;100595.22;;;16.38;100.00
18813;BME280;9534;51.140;6.296;2022-07-29T07:21:52;100594.28;;;16.44;100.00
18813;BME280;9534;51.140;6.296;2022-07-29T07:25:56;100588.94;;;16.71;100.00
18813;BME280;9534;51.140;6.296;2022-07-29T07:30:00;100588.50;;;16.79;100.00
18813;BME280;9534;51.140;6.296;2022-07-29T07:34:04;100585.91;;;16.89;100.00
18813;BME280;9534;51.140;6.296;2022-07-29T07:38:07;100587.38;;;17.29;100.00
18813;BME280;9534;51.140;6.296;2022-07-29T07:42:10;100570.44;;;17.63;100.00
18813;BME280;9534;51.140;6.296;2022-07-29T07:46:16;100577.91;;;17.63;100.00
18813;BME280;9534;51.140;6.296;2022-07-29T07:50:19;100571.34;;;17.47;100.00
18813;BME280;9534;51.140;6.296;2022-07-29T07:54:22;100579.84;;;17.25;100.00
18813;BME280;9534;51.140;6.296;2022-07-29T07:58:25;100586.94;;;17.37;100.00
18813;BME280;9534;51.140;6.296;2022-07-29T08:02:31;100592.44;;;17.53;100.00
18813;BME280;9534;51.140;6.296;2022-07-29T08:06:34;100597.34;;;17.68;100.00
18813;BME280;9534;51.140;6.296;2022-07-29T08:10:38;100599.63;;;17.71;100.00
18813;BME280;9534;51.140;6.296;2022-07-29T08:14:57;100596.72;;;17.61;100.00
18813;BME280;9534;51.140;6.296;2022-07-29T08:19:02;100603.53;;;17.75;100.00
18813;BME280;9534;51.140;6.296;2022-07-29T08:23:07;100600.78;;;17.75;100.00
18813;BME280;9534;51.140;6.296;2022-07-29T08:27:11;100614.53;;;17.91;100.00
18813;BME280;9534;51.140;6.296;2022-07-29T08:31:35;100614.66;;;18.80;100.00
18813;BME280;9534;51.140;6.296;2022-07-29T08:35:39;100601.25;;;19.35;100.00
18813;BME280;9534;51.140;6.296;2022-07-29T08:39:42;100608.06;;;19.59;100.00
18813;BME280;9534;51.140;6.296;2022-07-29T08:43:46;100587.69;;;20.00;100.00
18813;BME280;9534;51.140;6.296;2022-07-29T08:47:49;100579.06;;;19.35;100.00
18813;BME280;9534;51.140;6.296;2022-07-29T08:51:54;100581.22;;;19.28;100.00
18813;BME280;9534;51.140;6.296;2022-07-29T08:56:00;100583.56;;;19.46;100.00
18813;BME280;9534;51.140;6.296;2022-07-29T09:00:06;100576.00;;;19.98;100.00
18813;BME280;9534;51.140;6.296;2022-07-29T09:04:13;100576.47;;;20.66;100.00
18813;BME280;9534;51.140;6.296;2022-07-29T09:08:19;100566.19;;;21.02;100.00
18813;BME280;9534;51.140;6.296;2022-07-29T09:12:22;100571.44;;;21.23;100.00
18813;BME280;9534;51.140;6.296;2022-07-29T09:16:48;100579.50;;;20.80;100.00
18813;BME280;9534;51.140;6.296;2022-07-29T09:20:54;100580.66;;;20.94;100.00
18813;BME280;9534;51.140;6.296;2022-07-29T09:25:32;100589.94;;;22.84;100.00
18813;BME280;9534;51.140;6.296;2022-07-29T09:29:36;100574.84;;;22.85;100.00
18813;BME280;9534;51.140;6.296;2022-07-29T09:33:39;100589.47;;;22.72;100.00
18813;BME280;9534;51.140;6.296;2022-07-29T09:37:45;100586.31;;;21.82;100.00
18813;BME280;9534;51.140;6.296;2022-07-29T09:41:51;100593.56;;;23.46;100.00
18813;BME280;9534;51.140;6.296;2022-07-29T09:45:55;100590.28;;;25.79;100.00
18813;BME280;9534;51.140;6.296;2022-07-29T09:49:59;100589.16;;;24.10;100.00
18813;BME280;9534;51.140;6.296;2022-07-29T09:54:20;100589.84;;;23.27;100.00
18813;BME280;9534;51.140;6.296;2022-07-29T09:58:25;100592.72;;;22.46;100.00
18813;BME280;9534;51.140;6.296;2022-07-29T10:02:30;100591.22;;;21.21;100.00
18813;BME280;9534;51.140;6.296;2022-07-29T10:06:34;100602.25;;;21.56;100.00
18813;BME280;9534;51.140;6.296;2022-07-29T10:10:38;100612.94;;;21.19;100.00
18813;BME280;9534;51.140;6.296;2022-07-29T10:14:43;100607.38;;;21.15;100.00
18813;BME280;9534;51.140;6.296;2022-07-29T10:18:47;100605.72;;;20.94;100.00
18813;BME280;9534;51.140;6.296;2022-07-29T10:22:52;100606.22;;;20.66;100.00
18813;BME280;9534;51.140;6.296;2022-07-29T10:26:57;100601.75;;;20.70;100.00
18813;BME280;9534;51.140;6.296;2022-07-29T10:31:04;100606.19;;;20.41;100.00
18813;BME280;9534;51.140;6.296;2022-07-29T10:35:15;100603.91;;;20.23;100.00
18813;BME280;9534;51.140;6.296;2022-07-29T10:39:33;100602.84;;;20.39;100.00
18813;BME280;9534;51.140;6.296;2022-07-29T10:43:51;100603.97;;;20.43;100.00
18813;BME280;9534;51.140;6.296;2022-07-29T10:48:04;100597.56;;;20.37;100.00
18813;BME280;9534;51.140;6.296;2022-07-29T10:52:09;100593.41;;;20.50;100.00
18813;BME280;9534;51.140;6.296;2022-07-29T10:56:23;100594.81;;;20.77;100.00
18813;BME280;9534;51.140;6.296;2022-07-29T11:00:30;100596.19;;;20.70;100.00
18813;BME280;9534;51.140;6.296;2022-07-29T11:05:00;100600.06;;;20.59;100.00
18813;BME280;9534;51.140;6.296;2022-07-29T11:09:18;100604.84;;;21.18;100.00
18813;BME280;9534;51.140;6.296;2022-07-29T11:13:45;100601.50;;;22.19;100.00
18813;BME280;9534;51.140;6.296;2022-07-29T11:18:08;100599.06;;;22.03;100.00
18813;BME280;9534;51.140;6.296;2022-07-29T11:26:44;100605.38;;;23.05;100.00
18813;BME280;9534;51.140;6.296;2022-07-29T11:30:50;100602.72;;;24.22;100.00
18813;BME280;9534;51.140;6.296;2022-07-29T11:35:21;100610.88;;;23.72;100.00
18813;BME280;9534;51.140;6.296;2022-07-29T11:39:40;100607.53;;;24.58;100.00
18813;BME280;9534;51.140;6.296;2022-07-29T11:43:48;100617.25;;;24.24;100.00
18813;BME280;9534;51.140;6.296;2022-07-29T11:47:54;100614.25;;;23.45;100.00
18813;BME280;9534;51.140;6.296;2022-07-29T11:52:20;100618.19;;;23.06;100.00
18813;BME280;9534;51.140;6.296;2022-07-29T11:56:25;100616.13;;;22.49;100.00
18813;BME280;9534;51.140;6.296;2022-07-29T12:00:38;100607.91;;;25.66;100.00
18813;BME280;9534;51.140;6.296;2022-07-29T12:04:48;100605.16;;;24.84;100.00
18813;BME280;9534;51.140;6.296;2022-07-29T12:08:52;100605.72;;;24.07;100.00
18813;BME280;9534;51.140;6.296;2022-07-29T12:12:55;100611.94;;;26.67;100.00
18813;BME280;9534;51.140;6.296;2022-07-29T12:17:00;100604.09;;;24.43;100.00
18813;BME280;9534;51.140;6.296;2022-07-29T12:21:07;100609.13;;;25.33;100.00
18813;BME280;9534;51.140;6.296;2022-07-29T12:25:14;100598.69;;;23.63;100.00
18813;BME280;9534;51.140;6.296;2022-07-29T12:29:34;100598.72;;;24.83;100.00
18813;BME280;9534;51.140;6.296;2022-07-29T12:33:38;100594.63;;;24.94;100.00
18813;BME280;9534;51.140;6.296;2022-07-29T12:37:42;100602.66;;;26.05;100.00
18813;BME280;9534;51.140;6.296;2022-07-29T12:41:46;100613.06;;;26.80;100.00
18813;BME280;9534;51.140;6.296;2022-07-29T12:45:50;100595.06;;;25.01;100.00
18813;BME280;9534;51.140;6.296;2022-07-29T12:50:09;100598.75;;;26.68;100.00
18813;BME280;9534;51.140;6.296;2022-07-29T12:54:13;100597.22;;;25.68;100.00
18813;BME280;9534;51.140;6.296;2022-07-29T12:58:37;100600.63;;;25.38;100.00
18813;BME280;9534;51.140;6.296;2022-07-29T13:02:41;100599.94;;;25.86;100.00
18813;BME280;9534;51.140;6.296;2022-07-29T13:06:46;100586.41;;;25.16;100.00
18813;BME280;9534;51.140;6.296;2022-07-29T13:10:51;100592.88;;;26.29;100.00
18813;BME280;9534;51.140;6.296;2022-07-29T13:14:54;100601.88;;;27.10;100.00
18813;BME280;9534;51.140;6.296;2022-07-29T13:19:06;100592.56;;;25.90;100.00
18813;BME280;9534;51.140;6.296;2022-07-29T13:23:10;100590.34;;;26.41;100.00
18813;BME280;9534;51.140;6.296;2022-07-29T13:27:14;100603.94;;;26.47;100.00
18813;BME280;9534;51.140;6.296;2022-07-29T13:31:17;100603.28;;;26.99;100.00
18813;BME280;9534;51.140;6.296;2022-07-29T13:35:20;100600.75;;;27.11;100.00
18813;BME280;9534;51.140;6.296;2022-07-29T13:39:24;100591.34;;;27.68;100.00
18813;BME280;9534;51.140;6.296;2022-07-29T13:43:27;100588.78;;;27.80;100.00
18813;BME280;9534;51.140;6.296;2022-07-29T13:47:31;100581.50;;;27.79;99.32
18813;BME280;9534;51.140;6.296;2022-07-29T13:51:34;100584.88;;;28.54;96.59
18813;BME280;9534;51.140;6.296;2022-07-29T13:55:38;100582.88;;;27.29;99.33
18813;BME280;9534;51.140;6.296;2022-07-29T13:59:42;100586.75;;;26.98;99.93
18813;BME280;9534;51.140;6.296;2022-07-29T14:03:45;100586.25;;;26.12;100.00
18813;BME280;9534;51.140;6.296;2022-07-29T14:07:48;100567.53;;;26.91;98.85
18813;BME280;9534;51.140;6.296;2022-07-29T14:11:52;100579.44;;;27.71;97.21
18813;BME280;9534;51.140;6.296;2022-07-29T14:15:56;100582.72;;;28.68;88.26
18813;BME280;9534;51.140;6.296;2022-07-29T14:19:59;100578.94;;;27.69;90.28
18813;BME280;9534;51.140;6.296;2022-07-29T14:24:03;100578.28;;;27.63;94.95
18813;BME280;9534;51.140;6.296;2022-07-29T14:28:23;100575.41;;;29.17;90.08
18813;BME280;9534;51.140;6.296;2022-07-29T14:32:26;100578.28;;;30.18;78.09
18813;BME280;9534;51.140;6.296;2022-07-29T14:36:29;100572.69;;;29.63;76.69
18813;BME280;9534;51.140;6.296;2022-07-29T14:40:32;100575.47;;;27.72;85.98
18813;BME280;9534;51.140;6.296;2022-07-29T14:44:37;100571.94;;;29.20;83.58
18813;BME280;9534;51.140;6.296;2022-07-29T14:48:40;100570.91;;;29.33;78.06
18813;BME280;9534;51.140;6.296;2022-07-29T14:52:43;100572.56;;;30.26;79.61
18813;BME280;9534;51.140;6.296;2022-07-29T14:56:46;100572.13;;;28.82;84.93
18813;BME280;9534;51.140;6.296;2022-07-29T15:00:52;100565.13;;;28.37;85.50
18813;BME280;9534;51.140;6.296;2022-07-29T15:04:56;100562.81;;;29.23;87.82
18813;BME280;9534;51.140;6.296;2022-07-29T15:08:59;100565.50;;;30.03;82.81
18813;BME280;9534;51.140;6.296;2022-07-29T15:13:02;100565.81;;;30.68;79.91
18813;BME280;9534;51.140;6.296;2022-07-29T15:17:07;100564.38;;;30.33;84.04
18813;BME280;9534;51.140;6.296;2022-07-29T15:21:10;100555.38;;;29.02;88.45
18813;BME280;9534;51.140;6.296;2022-07-29T15:25:17;100554.41;;;27.22;96.08
18813;BME280;9534;51.140;6.296;2022-07-29T15:29:22;100558.34;;;27.21;99.29
18813;BME280;9534;51.140;6.296;2022-07-29T15:33:26;100553.91;;;26.49;100.00
18813;BME280;9534;51.140;6.296;2022-07-29T15:37:29;100550.56;;;27.18;100.00
18813;BME280;9534;51.140;6.296;2022-07-29T15:41:50;100555.41;;;26.82;100.00
18813;BME280;9534;51.140;6.296;2022-07-29T15:45:53;100548.28;;;26.14;100.00
18813;BME280;9534;51.140;6.296;2022-07-29T15:50:15;100552.44;;;27.31;100.00
18813;BME280;9534;51.140;6.296;2022-07-29T15:54:19;100554.78;;;27.68;100.00
18813;BME280;9534;51.140;6.296;2022-07-29T15:58:22;100557.78;;;28.19;99.19
18813;BME280;9534;51.140;6.296;2022-07-29T16:02:25;100564.50;;;28.91;94.56
18813;BME280;9534;51.140;6.296;2022-07-29T16:06:30;100558.34;;;27.52;100.00
18813;BME280;9534;51.140;6.296;2022-07-29T16:10:33;100561.25;;;28.16;97.43
18813;BME280;9534;51.140;6.296;2022-07-29T16:14:36;100549.50;;;28.14;96.43
18813;BME280;9534;51.140;6.296;2022-07-29T16:18:39;100558.03;;;28.56;94.65
18813;BME280;9534;51.140;6.296;2022-07-29T16:22:44;100552.09;;;27.24;97.70
18813;BME280;9534;51.140;6.296;2022-07-29T16:26:47;100550.91;;;28.93;93.70
18813;BME280;9534;51.140;6.296;2022-07-29T16:30:51;100549.81;;;28.21;96.21
18813;BME280;9534;51.140;6.296;2022-07-29T16:34:54;100547.59;;;26.57;98.04
18813;BME280;9534;51.140;6.296;2022-07-29T16:38:58;100551.09;;;26.28;100.00
18813;BME280;9534;51.140;6.296;2022-07-29T16:43:01;100543.81;;;27.58;98.88
18813;BME280;9534;51.140;6.296;2022-07-29T16:47:07;100549.28;;;27.93;97.89
18813;BME280;9534;51.140;6.296;2022-07-29T16:51:10;100538.84;;;27.94;99.52
18813;BME280;9534;51.140;6.296;2022-07-29T16:55:16;100546.59;;;27.88;99.61
18813;BME280;9534;51.140;6.296;2022-07-29T16:59:19;100542.31;;;27.52;100.00
18813;BME280;9534;51.140;6.296;2022-07-29T17:03:22;100544.53;;;27.72;99.57
18813;BME280;9534;51.140;6.296;2022-07-29T17:07:26;100549.34;;;27.71;98.03
18813;BME280;9534;51.140;6.296;2022-07-29T17:11:30;100548.00;;;27.08;98.86
18813;BME280;9534;51.140;6.296;2022-07-29T17:15:53;100545.19;;;28.08;94.60
18813;BME280;9534;51.140;6.296;2022-07-29T17:20:01;100549.97;;;28.07;94.29
18813;BME280;9534;51.140;6.296;2022-07-29T17:24:06;100555.84;;;28.45;94.84
18813;BME280;9534;51.140;6.296;2022-07-29T17:28:10;100574.88;;;30.53;86.41
18813;BME280;9534;51.140;6.296;2022-07-29T17:32:13;100574.84;;;29.58;89.68
18813;BME280;9534;51.140;6.296;2022-07-29T17:36:16;100570.56;;;28.33;96.10
18813;BME280;9534;51.140;6.296;2022-07-29T17:40:26;100572.78;;;28.62;88.14
18813;BME280;9534;51.140;6.296;2022-07-29T17:44:30;100568.09;;;26.58;97.51
18813;BME280;9534;51.140;6.296;2022-07-29T17:48:37;100563.06;;;25.79;100.00
18813;BME280;9534;51.140;6.296;2022-07-29T17:52:40;100573.22;;;26.42;98.24
18813;BME280;9534;51.140;6.296;2022-07-29T17:56:43;100560.72;;;25.27;100.00
18813;BME280;9534;51.140;6.296;2022-07-29T18:00:48;100571.53;;;25.34;100.00
18813;BME280;9534;51.140;6.296;2022-07-29T18:04:51;100570.41;;;25.62;100.00
18813;BME280;9534;51.140;6.296;2022-07-29T18:08:54;100571.47;;;25.66;100.00
18813;BME280;9534;51.140;6.296;2022-07-29T18:12:58;100578.31;;;25.87;100.00
18813;BME280;9534;51.140;6.296;2022-07-29T18:17:02;100581.88;;;26.06;100.00
18813;BME280;9534;51.140;6.296;2022-07-29T18:21:05;100579.34;;;25.37;100.00
18813;BME280;9534;51.140;6.296;2022-07-29T18:25:08;100569.06;;;24.82;100.00
18813;BME280;9534;51.140;6.296;2022-07-29T18:29:12;100582.72;;;24.70;100.00
18813;BME280;9534;51.140;6.296;2022-07-29T18:33:17;100585.59;;;24.65;100.00
18813;BME280;9534;51.140;6.296;2022-07-29T18:37:23;100586.72;;;24.83;100.00
18813;BME280;9534;51.140;6.296;2022-07-29T18:41:46;100595.47;;;24.58;100.00
18813;BME280;9534;51.140;6.296;2022-07-29T18:45:51;100592.78;;;25.03;100.00
18813;BME280;9534;51.140;6.296;2022-07-29T18:49:56;100588.13;;;24.80;100.00
18813;BME280;9534;51.140;6.296;2022-07-29T18:53:59;100594.09;;;24.37;100.00
18813;BME280;9534;51.140;6.296;2022-07-29T18:58:02;100590.94;;;24.01;100.00
18813;BME280;9534;51.140;6.296;2022-07-29T19:02:05;100586.47;;;23.54;100.00
18813;BME280;9534;51.140;6.296;2022-07-29T19:06:10;100585.56;;;23.35;100.00
18813;BME280;9534;51.140;6.296;2022-07-29T19:10:13;100586.47;;;23.30;100.00
18813;BME280;9534;51.140;6.296;2022-07-29T19:14:16;100589.59;;;23.24;100.00
18813;BME280;9534;51.140;6.296;2022-07-29T19:18:23;100591.59;;;23.18;100.00
18813;BME280;9534;51.140;6.296;2022-07-29T19:22:27;100600.94;;;23.04;100.00
18813;BME280;9534;51.140;6.296;2022-07-29T19:26:30;100604.34;;;22.96;100.00
18813;BME280;9534;51.140;6.296;2022-07-29T19:30:34;100600.03;;;22.75;100.00
18813;BME280;9534;51.140;6.296;2022-07-29T19:34:38;100612.16;;;22.60;100.00
18813;BME280;9534;51.140;6.296;2022-07-29T19:38:51;100616.72;;;22.47;100.00
18813;BME280;9534;51.140;6.296;2022-07-29T19:42:55;100616.78;;;22.27;100.00
18813;BME280;9534;51.140;6.296;2022-07-29T19:46:58;100629.97;;;22.11;100.00
18813;BME280;9534;51.140;6.296;2022-07-29T19:51:02;100622.25;;;21.88;100.00
18813;BME280;9534;51.140;6.296;2022-07-29T19:55:08;100634.81;;;21.81;100.00
18813;BME280;9534;51.140;6.296;2022-07-29T19:59:11;100638.47;;;21.56;100.00
18813;BME280;9534;51.140;6.296;2022-07-29T20:03:14;100646.34;;;21.24;100.00
18813;BME280;9534;51.140;6.296;2022-07-29T20:07:18;100638.25;;;21.03;100.00
18813;BME280;9534;51.140;6.296;2022-07-29T20:11:22;100651.59;;;20.86;100.00
18813;BME280;9534;51.140;6.296;2022-07-29T20:15:25;100651.53;;;20.61;100.00
18813;BME280;9534;51.140;6.296;2022-07-29T20:19:28;100657.09;;;20.51;100.00
18813;BME280;9534;51.140;6.296;2022-07-29T20:23:32;100650.34;;;20.27;100.00
18813;BME280;9534;51.140;6.296;2022-07-29T20:27:36;100662.25;;;20.13;100.00
18813;BME280;9534;51.140;6.296;2022-07-29T20:31:41;100672.69;;;19.96;100.00
18813;BME280;9534;51.140;6.296;2022-07-29T20:35:44;100666.75;;;19.78;100.00
18813;BME280;9534;51.140;6.296;2022-07-29T20:39:47;100678.09;;;19.71;100.00
18813;BME280;9534;51.140;6.296;2022-07-29T20:43:52;100683.66;;;19.71;100.00
18813;BME280;9534;51.140;6.296;2022-07-29T20:47:55;100683.31;;;19.63;100.00
18813;BME280;9534;51.140;6.296;2022-07-29T20:51:59;100688.06;;;19.67;100.00
18813;BME280;9534;51.140;6.296;2022-07-29T20:56:02;100679.72;;;19.67;100.00
18813;BME280;9534;51.140;6.296;2022-07-29T21:00:07;100682.19;;;19.59;100.00
18813;BME280;9534;51.140;6.296;2022-07-29T21:04:11;100698.28;;;19.57;100.00
18813;BME280;9534;51.140;6.296;2022-07-29T21:08:14;100699.34;;;19.51;100.00
18813;BME280;9534;51.140;6.296;2022-07-29T21:12:17;100699.19;;;19.31;100.00
18813;BME280;9534;51.140;6.296;2022-07-29T21:16:21;100708.94;;;19.33;100.00
18813;BME280;9534;51.140;6.296;2022-07-29T21:20:29;100705.66;;;19.41;100.00
18813;BME280;9534;51.140;6.296;2022-07-29T21:24:32;100702.00;;;19.36;100.00
18813;BME280;9534;51.140;6.296;2022-07-29T21:28:35;100711.66;;;19.28;100.00
18813;BME280;9534;51.140;6.296;2022-07-29T21:32:42;100712.19;;;19.25;100.00
18813;BME280;9534;51.140;6.296;2022-07-29T21:36:45;100716.00;;;19.19;100.00